sensor_id;sensor_type;location;lat;lon;timestamp;P1;durP1;ratioP1;P2;durP2;ratioP2
14231;SDS011;7200;52.194;9.900;2023-05-07T00:01:46;5.57;;;4.90;;
14231;SDS011;7200;52.194;9.900;2023-05-07T00:04:11;17.47;;;12.60;;
14231;SDS011;7200;52.194;9.900;2023-05-07T00:06:36;11.03;;;8.17;;
14231;SDS011;7200;52.194;9.900;2023-05-07T00:09:02;13.43;;;9.83;;
14231;SDS011;7200;52.194;9.900;2023-05-07T00:11:28;27.67;;;18.47;;
14231;SDS011;7200;52.194;9.900;2023-05-07T00:13:53;22.17;;;14.07;;
14231;SDS011;7200;52.194;9.900;2023-05-07T00:16:18;24.60;;;12.17;;
14231;SDS011;7200;52.194;9.900;2023-05-07T00:18:44;17.90;;;11.93;;
14231;SDS011;7200;52.194;9.900;2023-05-07T00:21:10;28.77;;;16.97;;
14231;SDS011;7200;52.194;9.900;2023-05-07T00:23:35;14.47;;;9.57;;
14231;SDS011;7200;52.194;9.900;2023-05-07T00:26:01;16.20;;;10.87;;
14231;SDS011;7200;52.194;9.900;2023-05-07T00:28:26;10.87;;;7.33;;
14231;SDS011;7200;52.194;9.900;2023-05-07T00:30:52;12.53;;;10.10;;
14231;SDS011;7200;52.194;9.900;2023-05-07T00:33:17;10.70;;;9.47;;
14231;SDS011;7200;52.194;9.900;2023-05-07T00:35:42;13.27;;;7.83;;
14231;SDS011;7200;52.194;9.900;2023-05-07T00:38:08;11.70;;;7.83;;
14231;SDS011;7200;52.194;9.900;2023-05-07T00:40:33;23.77;;;14.30;;
14231;SDS011;7200;52.194;9.900;2023-05-07T00:42:58;16.57;;;9.43;;
14231;SDS011;7200;52.194;9.900;2023-05-07T00:45:27;12.40;;;9.57;;
14231;SDS011;7200;52.194;9.900;2023-05-07T00:47:57;25.17;;;15.60;;
14231;SDS011;7200;52.194;9.900;2023-05-07T00:50:24;29.53;;;15.63;;
14231;SDS011;7200;52.194;9.900;2023-05-07T00:52:51;27.27;;;16.07;;
14231;SDS011;7200;52.194;9.900;2023-05-07T00:55:17;16.23;;;8.30;;
14231;SDS011;7200;52.194;9.900;2023-05-07T00:57:42;20.03;;;13.73;;
14231;SDS011;7200;52.194;9.900;2023-05-07T01:00:09;27.30;;;14.03;;
14231;SDS011;7200;52.194;9.900;2023-05-07T01:02:35;14.70;;;11.23;;
14231;SDS011;7200;52.194;9.900;2023-05-07T01:05:01;29.63;;;16.80;;
14231;SDS011;7200;52.194;9.900;2023-05-07T01:07:29;20.40;;;11.90;;
14231;SDS011;7200;52.194;9.900;2023-05-07T01:09:55;20.10;;;7.33;;
14231;SDS011;7200;52.194;9.900;2023-05-07T01:12:21;21.47;;;13.97;;
14231;SDS011;7200;52.194;9.900;2023-05-07T01:14:47;31.90;;;15.70;;
14231;SDS011;7200;52.194;9.900;2023-05-07T01:17:14;23.47;;;12.63;;
14231;SDS011;7200;52.194;9.900;2023-05-07T01:19:40;17.70;;;11.03;;
14231;SDS011;7200;52.194;9.900;2023-05-07T01:22:09;20.03;;;12.17;;
14231;SDS011;7200;52.194;9.900;2023-05-07T01:24:39;15.43;;;11.17;;
14231;SDS011;7200;52.194;9.900;2023-05-07T01:27:05;20.47;;;9.87;;
14231;SDS011;7200;52.194;9.900;2023-05-07T01:29:30;18.03;;;11.13;;
14231;SDS011;7200;52.194;9.900;2023-05-07T01:31:57;30.97;;;17.07;;
14231;SDS011;7200;52.194;9.900;2023-05-07T01:37:08;13.17;;;7.67;;
14231;SDS011;7200;52.194;9.900;2023-05-07T01:39:33;11.77;;;7.93;;
14231;SDS011;7200;52.194;9.900;2023-05-07T01:41:59;19.23;;;7.80;;
14231;SDS011;7200;52.194;9.900;2023-05-07T01:44:24;22.43;;;11.20;;
14231;SDS011;7200;52.194;9.900;2023-05-07T01:46:51;19.37;;;12.13;;
14231;SDS011;7200;52.194;9.900;2023-05-07T01:49:17;13.77;;;9.20;;
14231;SDS011;7200;52.194;9.900;2023-05-07T01:51:43;12.23;;;9.27;;
14231;SDS011;7200;52.194;9.900;2023-05-07T01:54:08;7.10;;;5.90;;
14231;SDS011;7200;52.194;9.900;2023-05-07T01:56:34;24.43;;;11.30;;
14231;SDS011;7200;52.194;9.900;2023-05-07T01:59:00;19.07;;;12.37;;
14231;SDS011;7200;52.194;9.900;2023-05-07T02:01:26;20.93;;;13.40;;
14231;SDS011;7200;52.194;9.900;2023-05-07T02:03:52;15.73;;;10.03;;
14231;SDS011;7200;52.194;9.900;2023-05-07T02:06:18;10.67;;;7.97;;
14231;SDS011;7200;52.194;9.900;2023-05-07T02:08:44;16.80;;;11.20;;
14231;SDS011;7200;52.194;9.900;2023-05-07T02:11:09;13.70;;;8.17;;
14231;SDS011;7200;52.194;9.900;2023-05-07T02:13:35;5.63;;;4.77;;
14231;SDS011;7200;52.194;9.900;2023-05-07T02:16:01;18.63;;;10.43;;
14231;SDS011;7200;52.194;9.900;2023-05-07T02:18:27;14.93;;;10.87;;
14231;SDS011;7200;52.194;9.900;2023-05-07T02:20:52;16.53;;;9.27;;
14231;SDS011;7200;52.194;9.900;2023-05-07T02:23:18;9.93;;;8.00;;
14231;SDS011;7200;52.194;9.900;2023-05-07T02:25:43;8.80;;;7.43;;
14231;SDS011;7200;52.194;9.900;2023-05-07T02:28:08;6.50;;;4.97;;
14231;SDS011;7200;52.194;9.900;2023-05-07T02:30:33;10.60;;;8.17;;
14231;SDS011;7200;52.194;9.900;2023-05-07T02:32:59;13.03;;;8.73;;
14231;SDS011;7200;52.194;9.900;2023-05-07T02:35:24;11.13;;;8.90;;
14231;SDS011;7200;52.194;9.900;2023-05-07T02:37:50;14.33;;;8.83;;
14231;SDS011;7200;52.194;9.900;2023-05-07T02:40:16;11.97;;;8.33;;
14231;SDS011;7200;52.194;9.900;2023-05-07T02:42:41;8.60;;;6.90;;
14231;SDS011;7200;52.194;9.900;2023-05-07T02:45:06;13.73;;;10.23;;
14231;SDS011;7200;52.194;9.900;2023-05-07T02:47:32;5.63;;;4.03;;
14231;SDS011;7200;52.194;9.900;2023-05-07T02:49:58;13.70;;;10.10;;
14231;SDS011;7200;52.194;9.900;2023-05-07T02:52:23;2.60;;;2.40;;
14231;SDS011;7200;52.194;9.900;2023-05-07T02:54:48;7.80;;;4.93;;
14231;SDS011;7200;52.194;9.900;2023-05-07T02:57:13;11.17;;;7.77;;
14231;SDS011;7200;52.194;9.900;2023-05-07T02:59:39;5.20;;;4.77;;
14231;SDS011;7200;52.194;9.900;2023-05-07T03:02:05;12.40;;;9.80;;
14231;SDS011;7200;52.194;9.900;2023-05-07T03:04:30;6.23;;;5.63;;
14231;SDS011;7200;52.194;9.900;2023-05-07T03:06:55;5.17;;;3.87;;
14231;SDS011;7200;52.194;9.900;2023-05-07T03:09:21;6.83;;;5.40;;
14231;SDS011;7200;52.194;9.900;2023-05-07T03:11:46;13.50;;;9.60;;
14231;SDS011;7200;52.194;9.900;2023-05-07T03:14:12;10.93;;;7.20;;
14231;SDS011;7200;52.194;9.900;2023-05-07T03:16:37;6.80;;;6.17;;
14231;SDS011;7200;52.194;9.900;2023-05-07T03:19:03;6.77;;;5.23;;
14231;SDS011;7200;52.194;9.900;2023-05-07T03:21:28;9.33;;;6.33;;
14231;SDS011;7200;52.194;9.900;2023-05-07T03:23:53;6.43;;;5.83;;
14231;SDS011;7200;52.194;9.900;2023-05-07T03:26:18;11.50;;;8.80;;
14231;SDS011;7200;52.194;9.900;2023-05-07T03:28:44;12.43;;;11.00;;
14231;SDS011;7200;52.194;9.900;2023-05-07T03:31:10;13.13;;;9.90;;
14231;SDS011;7200;52.194;9.900;2023-05-07T03:33:35;7.30;;;6.37;;
14231;SDS011;7200;52.194;9.900;2023-05-07T03:36:15;8.03;;;4.37;;
14231;SDS011;7200;52.194;9.900;2023-05-07T03:38:40;9.43;;;8.10;;
14231;SDS011;7200;52.194;9.900;2023-05-07T03:41:05;8.27;;;6.33;;
14231;SDS011;7200;52.194;9.900;2023-05-07T03:43:31;11.53;;;8.60;;
14231;SDS011;7200;52.194;9.900;2023-05-07T03:45:56;9.50;;;6.47;;
14231;SDS011;7200;52.194;9.900;2023-05-07T03:48:21;14.63;;;8.00;;
14231;SDS011;7200;52.194;9.900;2023-05-07T03:50:46;12.90;;;9.40;;
14231;SDS011;7200;52.194;9.900;2023-05-07T03:53:12;8.20;;;6.67;;
14231;SDS011;7200;52.194;9.900;2023-05-07T03:55:38;7.33;;;5.83;;
14231;SDS011;7200;52.194;9.900;2023-05-07T03:58:03;8.70;;;7.03;;
14231;SDS011;7200;52.194;9.900;2023-05-07T04:00:28;11.83;;;10.43;;
14231;SDS011;7200;52.194;9.900;2023-05-07T04:02:58;9.17;;;6.77;;
14231;SDS011;7200;52.194;9.900;2023-05-07T04:05:23;7.77;;;6.97;;
14231;SDS011;7200;52.194;9.900;2023-05-07T04:07:49;5.57;;;3.73;;
14231;SDS011;7200;52.194;9.900;2023-05-07T04:10:14;7.90;;;6.70;;
14231;SDS011;7200;52.194;9.900;2023-05-07T04:12:39;14.63;;;9.47;;
14231;SDS011;7200;52.194;9.900;2023-05-07T04:15:05;7.37;;;5.97;;
14231;SDS011;7200;52.194;9.900;2023-05-07T04:17:30;8.57;;;7.37;;
14231;SDS011;7200;52.194;9.900;2023-05-07T04:19:56;8.73;;;7.83;;
14231;SDS011;7200;52.194;9.900;2023-05-07T04:22:21;10.33;;;4.23;;
14231;SDS011;7200;52.194;9.900;2023-05-07T04:24:46;9.27;;;7.53;;
14231;SDS011;7200;52.194;9.900;2023-05-07T04:27:11;10.53;;;7.80;;
14231;SDS011;7200;52.194;9.900;2023-05-07T04:29:37;10.20;;;7.90;;
14231;SDS011;7200;52.194;9.900;2023-05-07T04:32:03;13.57;;;10.60;;
14231;SDS011;7200;52.194;9.900;2023-05-07T04:34:29;2.57;;;2.20;;
14231;SDS011;7200;52.194;9.900;2023-05-07T04:36:57;3.23;;;2.93;;
14231;SDS011;7200;52.194;9.900;2023-05-07T04:39:23;7.53;;;5.93;;
14231;SDS011;7200;52.194;9.900;2023-05-07T04:41:48;10.40;;;8.60;;
14231;SDS011;7200;52.194;9.900;2023-05-07T04:44:14;10.53;;;7.60;;
14231;SDS011;7200;52.194;9.900;2023-05-07T04:46:39;8.97;;;7.50;;
14231;SDS011;7200;52.194;9.900;2023-05-07T04:49:04;10.27;;;8.67;;
14231;SDS011;7200;52.194;9.900;2023-05-07T04:51:30;7.53;;;6.73;;
14231;SDS011;7200;52.194;9.900;2023-05-07T04:53:57;10.27;;;7.27;;
14231;SDS011;7200;52.194;9.900;2023-05-07T04:56:22;4.60;;;3.87;;
14231;SDS011;7200;52.194;9.900;2023-05-07T04:58:48;7.17;;;5.23;;
14231;SDS011;7200;52.194;9.900;2023-05-07T05:01:13;10.43;;;6.90;;
14231;SDS011;7200;52.194;9.900;2023-05-07T05:03:38;9.27;;;6.27;;
14231;SDS011;7200;52.194;9.900;2023-05-07T05:06:04;10.13;;;4.87;;
14231;SDS011;7200;52.194;9.900;2023-05-07T05:08:30;6.07;;;5.10;;
14231;SDS011;7200;52.194;9.900;2023-05-07T05:10:56;6.47;;;5.57;;
14231;SDS011;7200;52.194;9.900;2023-05-07T05:13:21;6.43;;;2.90;;
14231;SDS011;7200;52.194;9.900;2023-05-07T05:15:47;6.77;;;5.97;;
14231;SDS011;7200;52.194;9.900;2023-05-07T05:18:12;7.00;;;6.27;;
14231;SDS011;7200;52.194;9.900;2023-05-07T05:20:37;4.00;;;3.07;;
14231;SDS011;7200;52.194;9.900;2023-05-07T05:23:02;5.30;;;4.80;;
14231;SDS011;7200;52.194;9.900;2023-05-07T05:25:28;7.07;;;6.43;;
14231;SDS011;7200;52.194;9.900;2023-05-07T05:27:53;5.33;;;3.53;;
14231;SDS011;7200;52.194;9.900;2023-05-07T05:30:18;6.53;;;5.27;;
14231;SDS011;7200;52.194;9.900;2023-05-07T05:32:44;8.37;;;7.20;;
14231;SDS011;7200;52.194;9.900;2023-05-07T05:35:09;5.83;;;5.20;;
14231;SDS011;7200;52.194;9.900;2023-05-07T05:37:34;10.70;;;7.20;;
14231;SDS011;7200;52.194;9.900;2023-05-07T05:40:00;9.23;;;7.70;;
14231;SDS011;7200;52.194;9.900;2023-05-07T05:42:25;10.33;;;7.53;;
14231;SDS011;7200;52.194;9.900;2023-05-07T05:44:50;6.97;;;6.00;;
14231;SDS011;7200;52.194;9.900;2023-05-07T05:47:16;2.33;;;2.13;;
14231;SDS011;7200;52.194;9.900;2023-05-07T05:49:41;7.17;;;4.00;;
14231;SDS011;7200;52.194;9.900;2023-05-07T05:52:09;11.47;;;5.10;;
14231;SDS011;7200;52.194;9.900;2023-05-07T05:54:37;4.87;;;3.03;;
14231;SDS011;7200;52.194;9.900;2023-05-07T05:57:02;7.53;;;5.80;;
14231;SDS011;7200;52.194;9.900;2023-05-07T05:59:29;8.27;;;5.83;;
14231;SDS011;7200;52.194;9.900;2023-05-07T06:01:54;2.80;;;2.57;;
14231;SDS011;7200;52.194;9.900;2023-05-07T06:04:20;5.60;;;4.67;;
14231;SDS011;7200;52.194;9.900;2023-05-07T06:06:45;4.37;;;3.73;;
14231;SDS011;7200;52.194;9.900;2023-05-07T06:09:10;4.27;;;3.80;;
14231;SDS011;7200;52.194;9.900;2023-05-07T06:11:36;7.13;;;5.10;;
14231;SDS011;7200;52.194;9.900;2023-05-07T06:14:01;6.80;;;6.10;;
14231;SDS011;7200;52.194;9.900;2023-05-07T06:16:26;3.50;;;2.77;;
14231;SDS011;7200;52.194;9.900;2023-05-07T06:18:55;5.07;;;4.40;;
14231;SDS011;7200;52.194;9.900;2023-05-07T06:21:20;6.83;;;5.50;;
14231;SDS011;7200;52.194;9.900;2023-05-07T06:23:46;6.83;;;6.17;;
14231;SDS011;7200;52.194;9.900;2023-05-07T06:26:11;8.47;;;6.20;;
14231;SDS011;7200;52.194;9.900;2023-05-07T06:28:36;4.37;;;3.23;;
14231;SDS011;7200;52.194;9.900;2023-05-07T06:31:18;4.70;;;4.30;;
14231;SDS011;7200;52.194;9.900;2023-05-07T06:33:47;4.20;;;3.80;;
14231;SDS011;7200;52.194;9.900;2023-05-07T06:36:14;4.67;;;4.20;;
14231;SDS011;7200;52.194;9.900;2023-05-07T06:38:39;5.90;;;4.23;;
14231;SDS011;7200;52.194;9.900;2023-05-07T06:41:08;5.90;;;5.37;;
14231;SDS011;7200;52.194;9.900;2023-05-07T06:43:33;3.60;;;3.30;;
14231;SDS011;7200;52.194;9.900;2023-05-07T06:45:58;3.43;;;2.70;;
14231;SDS011;7200;52.194;9.900;2023-05-07T06:48:24;2.70;;;2.50;;
14231;SDS011;7200;52.194;9.900;2023-05-07T06:50:49;5.40;;;4.77;;
14231;SDS011;7200;52.194;9.900;2023-05-07T06:53:15;4.57;;;3.73;;
14231;SDS011;7200;52.194;9.900;2023-05-07T06:55:40;5.07;;;4.57;;
14231;SDS011;7200;52.194;9.900;2023-05-07T06:58:06;6.80;;;4.37;;
14231;SDS011;7200;52.194;9.900;2023-05-07T07:00:32;2.83;;;2.63;;
14231;SDS011;7200;52.194;9.900;2023-05-07T07:02:57;4.33;;;3.30;;
14231;SDS011;7200;52.194;9.900;2023-05-07T07:05:22;4.13;;;3.57;;
14231;SDS011;7200;52.194;9.900;2023-05-07T07:07:48;6.27;;;4.47;;
14231;SDS011;7200;52.194;9.900;2023-05-07T07:10:18;6.63;;;5.63;;
14231;SDS011;7200;52.194;9.900;2023-05-07T07:12:44;5.63;;;4.10;;
14231;SDS011;7200;52.194;9.900;2023-05-07T07:15:09;1.53;;;1.10;;
14231;SDS011;7200;52.194;9.900;2023-05-07T07:17:35;5.87;;;4.83;;
14231;SDS011;7200;52.194;9.900;2023-05-07T07:20:00;5.30;;;4.83;;
14231;SDS011;7200;52.194;9.900;2023-05-07T07:22:26;5.23;;;4.33;;
14231;SDS011;7200;52.194;9.900;2023-05-07T07:24:51;3.07;;;2.37;;
14231;SDS011;7200;52.194;9.900;2023-05-07T07:27:16;5.60;;;4.53;;
14231;SDS011;7200;52.194;9.900;2023-05-07T07:29:41;4.57;;;2.87;;
14231;SDS011;7200;52.194;9.900;2023-05-07T07:32:07;4.53;;;4.03;;
14231;SDS011;7200;52.194;9.900;2023-05-07T07:34:32;5.13;;;4.60;;
14231;SDS011;7200;52.194;9.900;2023-05-07T07:36:57;2.23;;;2.03;;
14231;SDS011;7200;52.194;9.900;2023-05-07T07:39:23;4.77;;;4.27;;
14231;SDS011;7200;52.194;9.900;2023-05-07T07:41:48;3.90;;;3.53;;
14231;SDS011;7200;52.194;9.900;2023-05-07T07:44:13;3.37;;;3.07;;
14231;SDS011;7200;52.194;9.900;2023-05-07T07:46:38;5.33;;;4.83;;
14231;SDS011;7200;52.194;9.900;2023-05-07T07:49:04;4.83;;;4.40;;
14231;SDS011;7200;52.194;9.900;2023-05-07T07:51:29;4.87;;;4.03;;
14231;SDS011;7200;52.194;9.900;2023-05-07T07:53:55;3.60;;;2.93;;
14231;SDS011;7200;52.194;9.900;2023-05-07T07:56:22;6.97;;;4.80;;
14231;SDS011;7200;52.194;9.900;2023-05-07T07:58:48;4.87;;;4.43;;
14231;SDS011;7200;52.194;9.900;2023-05-07T08:01:13;7.70;;;6.93;;
14231;SDS011;7200;52.194;9.900;2023-05-07T08:03:38;5.20;;;4.70;;
14231;SDS011;7200;52.194;9.900;2023-05-07T08:06:04;8.80;;;8.00;;
14231;SDS011;7200;52.194;9.900;2023-05-07T08:08:29;7.57;;;6.87;;
14231;SDS011;7200;52.194;9.900;2023-05-07T08:10:54;4.87;;;4.37;;
14231;SDS011;7200;52.194;9.900;2023-05-07T08:13:19;7.70;;;7.00;;
14231;SDS011;7200;52.194;9.900;2023-05-07T08:15:45;3.50;;;3.07;;
14231;SDS011;7200;52.194;9.900;2023-05-07T08:18:10;5.60;;;3.53;;
14231;SDS011;7200;52.194;9.900;2023-05-07T08:20:35;4.27;;;3.87;;
14231;SDS011;7200;52.194;9.900;2023-05-07T08:23:04;6.20;;;5.30;;
14231;SDS011;7200;52.194;9.900;2023-05-07T08:25:32;3.97;;;3.40;;
14231;SDS011;7200;52.194;9.900;2023-05-07T08:27:58;4.97;;;4.07;;
14231;SDS011;7200;52.194;9.900;2023-05-07T08:30:23;7.93;;;5.23;;
14231;SDS011;7200;52.194;9.900;2023-05-07T08:32:48;5.13;;;2.67;;
14231;SDS011;7200;52.194;9.900;2023-05-07T08:35:13;5.33;;;4.83;;
14231;SDS011;7200;52.194;9.900;2023-05-07T08:37:39;1.67;;;1.50;;
14231;SDS011;7200;52.194;9.900;2023-05-07T08:40:04;3.70;;;3.37;;
14231;SDS011;7200;52.194;9.900;2023-05-07T08:42:31;3.67;;;3.37;;
14231;SDS011;7200;52.194;9.900;2023-05-07T08:44:57;4.30;;;3.77;;
14231;SDS011;7200;52.194;9.900;2023-05-07T08:47:26;6.13;;;5.53;;
14231;SDS011;7200;52.194;9.900;2023-05-07T08:49:58;4.93;;;4.50;;
14231;SDS011;7200;52.194;9.900;2023-05-07T08:52:23;4.13;;;3.70;;
14231;SDS011;7200;52.194;9.900;2023-05-07T08:54:48;4.30;;;3.90;;
14231;SDS011;7200;52.194;9.900;2023-05-07T08:57:14;6.33;;;4.63;;
14231;SDS011;7200;52.194;9.900;2023-05-07T08:59:39;6.67;;;6.07;;
14231;SDS011;7200;52.194;9.900;2023-05-07T09:02:06;3.57;;;3.27;;
14231;SDS011;7200;52.194;9.900;2023-05-07T09:04:34;5.97;;;4.57;;
14231;SDS011;7200;52.194;9.900;2023-05-07T09:07:00;5.00;;;3.60;;
14231;SDS011;7200;52.194;9.900;2023-05-07T09:09:30;6.33;;;5.20;;
14231;SDS011;7200;52.194;9.900;2023-05-07T09:11:57;4.00;;;3.33;;
14231;SDS011;7200;52.194;9.900;2023-05-07T09:14:27;2.67;;;2.40;;
14231;SDS011;7200;52.194;9.900;2023-05-07T09:16:52;6.13;;;5.00;;
14231;SDS011;7200;52.194;9.900;2023-05-07T09:19:22;6.03;;;5.43;;
14231;SDS011;7200;52.194;9.900;2023-05-07T09:22:04;6.00;;;5.50;;
14231;SDS011;7200;52.194;9.900;2023-05-07T09:24:31;3.17;;;2.87;;
14231;SDS011;7200;52.194;9.900;2023-05-07T09:27:00;6.60;;;6.00;;
14231;SDS011;7200;52.194;9.900;2023-05-07T09:29:27;4.13;;;3.73;;
14231;SDS011;7200;52.194;9.900;2023-05-07T09:32:01;6.40;;;5.80;;
14231;SDS011;7200;52.194;9.900;2023-05-07T09:34:28;5.17;;;4.67;;
14231;SDS011;7200;52.194;9.900;2023-05-07T09:36:54;6.57;;;5.97;;
14231;SDS011;7200;52.194;9.900;2023-05-07T09:39:19;7.00;;;6.17;;
14231;SDS011;7200;52.194;9.900;2023-05-07T09:41:45;5.83;;;5.23;;
14231;SDS011;7200;52.194;9.900;2023-05-07T09:44:12;3.03;;;2.77;;
14231;SDS011;7200;52.194;9.900;2023-05-07T09:46:38;5.20;;;4.80;;
14231;SDS011;7200;52.194;9.900;2023-05-07T09:49:07;6.77;;;6.17;;
14231;SDS011;7200;52.194;9.900;2023-05-07T09:51:45;6.10;;;5.50;;
14231;SDS011;7200;52.194;9.900;2023-05-07T09:54:14;4.13;;;3.17;;
14231;SDS011;7200;52.194;9.900;2023-05-07T09:56:40;7.40;;;6.10;;
14231;SDS011;7200;52.194;9.900;2023-05-07T09:59:08;4.97;;;4.53;;
14231;SDS011;7200;52.194;9.900;2023-05-07T10:01:37;7.63;;;6.93;;
14231;SDS011;7200;52.194;9.900;2023-05-07T10:04:05;8.97;;;3.83;;
14231;SDS011;7200;52.194;9.900;2023-05-07T10:06:33;5.00;;;4.53;;
14231;SDS011;7200;52.194;9.900;2023-05-07T10:08:59;6.23;;;5.73;;
14231;SDS011;7200;52.194;9.900;2023-05-07T10:11:25;8.53;;;5.47;;
14231;SDS011;7200;52.194;9.900;2023-05-07T10:13:51;4.67;;;4.23;;
14231;SDS011;7200;52.194;9.900;2023-05-07T10:16:17;6.60;;;6.00;;
14231;SDS011;7200;52.194;9.900;2023-05-07T10:18:43;6.67;;;6.07;;
14231;SDS011;7200;52.194;9.900;2023-05-07T10:21:16;3.57;;;2.60;;
14231;SDS011;7200;52.194;9.900;2023-05-07T10:23:44;4.37;;;2.93;;
14231;SDS011;7200;52.194;9.900;2023-05-07T10:26:13;7.27;;;6.63;;
14231;SDS011;7200;52.194;9.900;2023-05-07T10:28:41;8.57;;;4.83;;
14231;SDS011;7200;52.194;9.900;2023-05-07T10:33:51;2.63;;;2.07;;
14231;SDS011;7200;52.194;9.900;2023-05-07T10:36:17;6.47;;;3.80;;
14231;SDS011;7200;52.194;9.900;2023-05-07T10:38:44;11.23;;;5.53;;
14231;SDS011;7200;52.194;9.900;2023-05-07T10:41:11;7.40;;;5.47;;
14231;SDS011;7200;52.194;9.900;2023-05-07T10:43:43;4.93;;;3.83;;
14231;SDS011;7200;52.194;9.900;2023-05-07T10:46:10;3.63;;;3.33;;
14231;SDS011;7200;52.194;9.900;2023-05-07T10:51:26;8.33;;;7.43;;
14231;SDS011;7200;52.194;9.900;2023-05-07T10:54:18;6.07;;;5.47;;
14231;SDS011;7200;52.194;9.900;2023-05-07T10:56:44;5.07;;;4.63;;
14231;SDS011;7200;52.194;9.900;2023-05-07T11:01:53;4.17;;;3.87;;
14231;SDS011;7200;52.194;9.900;2023-05-07T11:04:27;2.03;;;1.90;;
14231;SDS011;7200;52.194;9.900;2023-05-07T11:13:02;6.70;;;6.10;;
14231;SDS011;7200;52.194;9.900;2023-05-07T11:15:03;4.93;;;4.17;;
14231;SDS011;7200;52.194;9.900;2023-05-07T11:17:30;4.63;;;4.23;;
14231;SDS011;7200;52.194;9.900;2023-05-07T11:19:59;6.70;;;3.77;;
14231;SDS011;7200;52.194;9.900;2023-05-07T11:22:36;2.90;;;2.67;;
14231;SDS011;7200;52.194;9.900;2023-05-07T11:25:05;4.30;;;3.90;;
14231;SDS011;7200;52.194;9.900;2023-05-07T11:27:32;4.13;;;3.83;;
14231;SDS011;7200;52.194;9.900;2023-05-07T11:29:59;4.27;;;3.83;;
14231;SDS011;7200;52.194;9.900;2023-05-07T11:32:26;7.13;;;6.57;;
14231;SDS011;7200;52.194;9.900;2023-05-07T11:34:53;5.93;;;5.43;;
14231;SDS011;7200;52.194;9.900;2023-05-07T11:37:20;6.27;;;5.33;;
14231;SDS011;7200;52.194;9.900;2023-05-07T11:39:46;4.37;;;4.00;;
14231;SDS011;7200;52.194;9.900;2023-05-07T11:42:25;6.03;;;5.57;;
14231;SDS011;7200;52.194;9.900;2023-05-07T11:45:01;4.63;;;4.33;;
14231;SDS011;7200;52.194;9.900;2023-05-07T11:47:29;4.10;;;3.80;;
14231;SDS011;7200;52.194;9.900;2023-05-07T11:49:55;4.90;;;4.50;;
14231;SDS011;7200;52.194;9.900;2023-05-07T11:52:21;3.83;;;3.53;;
14231;SDS011;7200;52.194;9.900;2023-05-07T11:54:54;3.80;;;3.53;;
14231;SDS011;7200;52.194;9.900;2023-05-07T11:57:24;3.37;;;3.10;;
14231;SDS011;7200;52.194;9.900;2023-05-07T11:59:56;3.57;;;2.90;;
14231;SDS011;7200;52.194;9.900;2023-05-07T12:02:23;4.17;;;3.77;;
14231;SDS011;7200;52.194;9.900;2023-05-07T12:04:53;3.17;;;2.77;;
14231;SDS011;7200;52.194;9.900;2023-05-07T12:07:19;5.93;;;5.33;;
14231;SDS011;7200;52.194;9.900;2023-05-07T12:09:44;5.17;;;4.47;;
14231;SDS011;7200;52.194;9.900;2023-05-07T12:12:10;4.57;;;4.23;;
14231;SDS011;7200;52.194;9.900;2023-05-07T12:14:39;5.13;;;4.73;;
14231;SDS011;7200;52.194;9.900;2023-05-07T12:17:09;5.03;;;4.47;;
14231;SDS011;7200;52.194;9.900;2023-05-07T12:19:35;3.93;;;3.63;;
14231;SDS011;7200;52.194;9.900;2023-05-07T12:22:04;3.97;;;3.67;;
14231;SDS011;7200;52.194;9.900;2023-05-07T12:24:46;3.70;;;3.27;;
14231;SDS011;7200;52.194;9.900;2023-05-07T12:27:14;5.67;;;4.20;;
14231;SDS011;7200;52.194;9.900;2023-05-07T12:29:43;4.40;;;4.03;;
14231;SDS011;7200;52.194;9.900;2023-05-07T12:32:13;4.37;;;3.97;;
14231;SDS011;7200;52.194;9.900;2023-05-07T12:34:40;2.20;;;2.00;;
14231;SDS011;7200;52.194;9.900;2023-05-07T12:37:05;4.67;;;4.33;;
14231;SDS011;7200;52.194;9.900;2023-05-07T12:39:30;5.67;;;5.07;;
14231;SDS011;7200;52.194;9.900;2023-05-07T12:41:58;6.73;;;4.13;;
14231;SDS011;7200;52.194;9.900;2023-05-07T12:44:31;4.73;;;4.27;;
14231;SDS011;7200;52.194;9.900;2023-05-07T12:46:58;3.20;;;2.90;;
14231;SDS011;7200;52.194;9.900;2023-05-07T12:49:26;5.27;;;4.87;;
14231;SDS011;7200;52.194;9.900;2023-05-07T12:51:52;6.73;;;6.23;;
14231;SDS011;7200;52.194;9.900;2023-05-07T12:54:31;5.53;;;5.07;;
14231;SDS011;7200;52.194;9.900;2023-05-07T12:57:10;8.07;;;7.40;;
14231;SDS011;7200;52.194;9.900;2023-05-07T12:59:39;3.00;;;2.63;;
14231;SDS011;7200;52.194;9.900;2023-05-07T13:02:05;6.67;;;6.07;;
14231;SDS011;7200;52.194;9.900;2023-05-07T13:04:32;10.13;;;6.37;;
14231;SDS011;7200;52.194;9.900;2023-05-07T13:06:58;5.67;;;5.27;;
14231;SDS011;7200;52.194;9.900;2023-05-07T13:09:23;4.43;;;4.10;;
14231;SDS011;7200;52.194;9.900;2023-05-07T13:11:49;5.53;;;4.50;;
14231;SDS011;7200;52.194;9.900;2023-05-07T13:14:14;4.53;;;4.20;;
14231;SDS011;7200;52.194;9.900;2023-05-07T13:16:40;5.83;;;5.33;;
14231;SDS011;7200;52.194;9.900;2023-05-07T13:19:05;7.70;;;7.17;;
14231;SDS011;7200;52.194;9.900;2023-05-07T13:21:30;3.60;;;3.30;;
14231;SDS011;7200;52.194;9.900;2023-05-07T13:23:58;6.27;;;5.77;;
14231;SDS011;7200;52.194;9.900;2023-05-07T13:26:24;4.83;;;4.43;;
14231;SDS011;7200;52.194;9.900;2023-05-07T13:28:50;5.17;;;4.77;;
14231;SDS011;7200;52.194;9.900;2023-05-07T13:31:16;8.43;;;5.47;;
14231;SDS011;7200;52.194;9.900;2023-05-07T13:33:42;6.17;;;5.70;;
14231;SDS011;7200;52.194;9.900;2023-05-07T13:36:07;6.00;;;5.50;;
14231;SDS011;7200;52.194;9.900;2023-05-07T13:38:33;6.73;;;6.13;;
14231;SDS011;7200;52.194;9.900;2023-05-07T13:40:58;5.53;;;5.20;;
14231;SDS011;7200;52.194;9.900;2023-05-07T13:43:24;7.67;;;7.00;;
14231;SDS011;7200;52.194;9.900;2023-05-07T13:45:49;4.83;;;4.40;;
14231;SDS011;7200;52.194;9.900;2023-05-07T13:48:15;6.50;;;5.90;;
14231;SDS011;7200;52.194;9.900;2023-05-07T13:50:40;6.37;;;5.87;;
14231;SDS011;7200;52.194;9.900;2023-05-07T13:53:05;7.13;;;6.53;;
14231;SDS011;7200;52.194;9.900;2023-05-07T13:55:30;2.70;;;2.50;;
14231;SDS011;7200;52.194;9.900;2023-05-07T13:57:59;3.67;;;3.00;;
14231;SDS011;7200;52.194;9.900;2023-05-07T14:00:26;2.83;;;2.63;;
14231;SDS011;7200;52.194;9.900;2023-05-07T14:02:53;5.33;;;4.93;;
14231;SDS011;7200;52.194;9.900;2023-05-07T14:05:19;1.93;;;1.77;;
14231;SDS011;7200;52.194;9.900;2023-05-07T14:07:45;5.10;;;4.70;;
14231;SDS011;7200;52.194;9.900;2023-05-07T14:10:10;4.60;;;4.30;;
14231;SDS011;7200;52.194;9.900;2023-05-07T14:12:36;3.67;;;3.40;;
14231;SDS011;7200;52.194;9.900;2023-05-07T14:15:01;7.37;;;6.80;;
14231;SDS011;7200;52.194;9.900;2023-05-07T14:17:27;5.37;;;4.97;;
14231;SDS011;7200;52.194;9.900;2023-05-07T14:19:52;4.03;;;3.73;;
14231;SDS011;7200;52.194;9.900;2023-05-07T14:22:22;5.73;;;5.23;;
14231;SDS011;7200;52.194;9.900;2023-05-07T14:24:48;1.87;;;1.77;;
14231;SDS011;7200;52.194;9.900;2023-05-07T14:27:13;6.30;;;5.90;;
14231;SDS011;7200;52.194;9.900;2023-05-07T14:29:39;2.17;;;2.07;;
14231;SDS011;7200;52.194;9.900;2023-05-07T14:32:05;2.93;;;2.73;;
14231;SDS011;7200;52.194;9.900;2023-05-07T14:34:30;5.43;;;5.03;;
14231;SDS011;7200;52.194;9.900;2023-05-07T14:36:56;5.00;;;3.57;;
14231;SDS011;7200;52.194;9.900;2023-05-07T14:39:21;5.13;;;4.73;;
14231;SDS011;7200;52.194;9.900;2023-05-07T14:41:47;6.30;;;5.77;;
14231;SDS011;7200;52.194;9.900;2023-05-07T14:44:12;5.40;;;4.93;;
14231;SDS011;7200;52.194;9.900;2023-05-07T14:46:38;4.47;;;2.87;;
14231;SDS011;7200;52.194;9.900;2023-05-07T14:49:03;5.10;;;4.70;;
14231;SDS011;7200;52.194;9.900;2023-05-07T14:51:28;6.57;;;5.87;;
14231;SDS011;7200;52.194;9.900;2023-05-07T14:53:54;4.23;;;3.23;;
14231;SDS011;7200;52.194;9.900;2023-05-07T14:56:19;4.80;;;4.40;;
14231;SDS011;7200;52.194;9.900;2023-05-07T14:58:46;4.87;;;4.47;;
14231;SDS011;7200;52.194;9.900;2023-05-07T15:01:12;6.10;;;5.33;;
14231;SDS011;7200;52.194;9.900;2023-05-07T15:03:38;5.17;;;4.77;;
14231;SDS011;7200;52.194;9.900;2023-05-07T15:06:04;4.87;;;4.53;;
14231;SDS011;7200;52.194;9.900;2023-05-07T15:08:29;3.57;;;3.23;;
14231;SDS011;7200;52.194;9.900;2023-05-07T15:10:55;5.80;;;5.30;;